Time;durP1;ratioP1;P1;durP2;ratioP2;P2;SDS_P1;SDS_P2;PMS_P1;PMS_P2;Temp;Humidity;BMP_temperature;BMP_pressure;BME280_temperature;BME280_humidity;BME280_pressure;Samples;Min_cycle;Max_cycle;Signal;HPM_P1;HPM_P2
2022/09/27 00:01:36;;;;;;;0.20;0.20;;;11.80;99.90;;;;;;5033957;28;20559;-80
2022/09/27 00:04:01;;;;;;;0.20;0.20;;;11.80;99.90;;;;;;5035488;28;20177;-79
2022/09/27 00:06:29;;;;;;;0.60;0.33;;;11.80;99.90;;;;;;5033117;28;20676;-80
2022/09/27 00:08:55;;;;;;;0.10;0.10;;;11.90;99.90;;;;;;5034357;28;20284;-79
2022/09/27 00:11:27;;;;;;;0.10;0.10;;;11.90;99.90;;;;;;5033103;28;20865;-79
2022/09/27 00:13:54;;;;;;;0.20;0.20;;;11.90;99.90;;;;;;5032268;28;20428;-80
2022/09/27 00:16:21;;;;;;;0.10;0.10;;;12.00;99.90;;;;;;5031366;28;20221;-80
2022/09/27 00:18:47;;;;;;;0.20;0.20;;;11.90;99.90;;;;;;5035446;28;20208;-79
2022/09/27 00:21:15;;;;;;;0.10;0.10;;;12.00;99.90;;;;;;5032725;28;20217;-79
2022/09/27 00:23:40;;;;;;;0.10;0.10;;;12.00;99.90;;;;;;5031385;28;20183;-79
2022/09/27 00:26:07;;;;;;;0.10;0.10;;;12.00;99.90;;;;;;5031663;28;20568;-80
2022/09/27 00:28:33;;;;;;;0.10;0.10;;;12.00;99.90;;;;;;5031709;28;20271;-79
2022/09/27 00:30:59;;;;;;;0.10;0.10;;;12.00;99.90;;;;;;5035216;28;20182;-80
2022/09/27 00:33:26;;;;;;;0.10;0.10;;;12.00;99.90;;;;;;5031071;28;20189;-79
2022/09/27 00:35:51;;;;;;;0.10;0.10;;;12.00;99.90;;;;;;5033600;28;20335;-79
2022/09/27 00:38:17;;;;;;;0.10;0.10;;;12.00;99.90;;;;;;5033187;28;20280;-79
2022/09/27 00:40:43;;;;;;;0.10;0.10;;;11.90;99.90;;;;;;5032633;28;20567;-79
2022/09/27 00:43:17;;;;;;;0.13;0.13;;;12.00;99.90;;;;;;5032783;28;20196;-80
2022/09/27 00:45:56;;;;;;;0.10;0.10;;;12.00;99.90;;;;;;5032841;28;20255;-79
2022/09/27 00:48:26;;;;;;;0.10;0.10;;;12.00;99.90;;;;;;5031765;28;20189;-79
2022/09/27 00:50:56;;;;;;;0.20;0.20;;;12.00;99.90;;;;;;5034776;28;20256;-79
2022/09/27 00:53:45;;;;;;;1.90;0.30;;;12.00;99.90;;;;;;5030983;28;20288;-79
2022/09/27 00:56:17;;;;;;;0.10;0.10;;;12.10;99.90;;;;;;5038158;28;20320;-79
2022/09/27 00:58:49;;;;;;;0.10;0.10;;;12.00;99.90;;;;;;5037528;28;20188;-79
2022/09/27 01:01:16;;;;;;;0.47;0.30;;;12.00;99.90;;;;;;5040742;28;20209;-79
2022/09/27 01:03:52;;;;;;;0.10;0.10;;;12.00;99.90;;;;;;5037214;28;20240;-80
2022/09/27 01:06:19;;;;;;;0.10;0.10;;;12.10;99.90;;;;;;5040838;28;20213;-80
2022/09/27 01:08:45;;;;;;;0.20;0.20;;;12.10;99.90;;;;;;5042261;28;20860;-80
2022/09/27 01:11:10;;;;;;;0.20;0.20;;;12.00;99.90;;;;;;5040019;28;20182;-79
2022/09/27 01:14:15;;;;;;;0.10;0.10;;;12.00;99.90;;;;;;5038803;28;20184;-79
2022/09/27 01:16:46;;;;;;;0.10;0.10;;;12.00;99.90;;;;;;5037151;28;20205;-80
2022/09/27 01:20:00;;;;;;;0.20;0.20;;;11.90;99.90;;;;;;5036335;28;20239;-79
2022/09/27 01:22:41;;;;;;;0.30;0.30;;;11.80;99.90;;;;;;5037293;28;20224;-79
2022/09/27 01:25:28;;;;;;;0.10;0.10;;;11.90;99.90;;;;;;5039392;28;20240;-79
2022/09/27 01:28:08;;;;;;;0.10;0.10;;;11.80;99.90;;;;;;5038108;28;20175;-79
2022/09/27 01:30:44;;;;;;;0.40;0.40;;;11.80;99.90;;;;;;5037272;28;20821;-79
2022/09/27 01:33:44;;;;;;;0.10;0.10;;;11.80;99.90;;;;;;5038307;28;20188;-79
2022/09/27 01:36:51;;;;;;;0.10;0.10;;;11.90;99.90;;;;;;4993645;28;20212;-80
2022/09/27 01:39:25;;;;;;;3.30;0.20;;;11.90;99.90;;;;;;4993958;28;20314;-79
2022/09/27 01:41:58;;;;;;;0.20;0.20;;;11.90;99.90;;;;;;5028926;28;20208;-79
2022/09/27 01:44:35;;;;;;;0.10;0.10;;;11.90;99.90;;;;;;5037475;28;20178;-79
2022/09/27 01:47:07;;;;;;;0.20;0.20;;;11.90;99.90;;;;;;5034835;28;20352;-79
2022/09/27 01:49:41;;;;;;;0.43;0.43;;;11.90;99.90;;;;;;5024517;28;21147;-79
2022/09/27 01:52:10;;;;;;;0.10;0.10;;;11.90;99.90;;;;;;5026366;28;20206;-79
2022/09/27 01:54:43;;;;;;;0.10;0.10;;;11.90;99.90;;;;;;5024987;28;20259;-79
2022/09/27 01:57:12;;;;;;;0.70;0.30;;;11.80;99.90;;;;;;5018549;28;20222;-79
2022/09/27 01:59:55;;;;;;;0.10;0.10;;;11.80;99.90;;;;;;5024011;28;20204;-79
2022/09/27 02:02:25;;;;;;;0.20;0.20;;;11.80;99.90;;;;;;5019826;28;20236;-79
2022/09/27 02:04:58;;;;;;;0.20;0.20;;;11.80;99.90;;;;;;5021544;28;20269;-79
2022/09/27 02:07:47;;;;;;;0.37;0.30;;;11.70;99.90;;;;;;5024446;28;20179;-79
2022/09/27 02:10:20;;;;;;;0.10;0.10;;;11.70;99.90;;;;;;5025195;28;20569;-79
2022/09/27 02:12:59;;;;;;;0.70;0.10;;;11.60;99.90;;;;;;5028765;28;20181;-79
2022/09/27 02:15:26;;;;;;;4.03;0.30;;;11.50;99.90;;;;;;5037645;28;20204;-79
2022/09/27 02:18:00;;;;;;;0.27;0.27;;;11.50;99.90;;;;;;5032448;28;20214;-79
2022/09/27 02:20:40;;;;;;;0.20;0.20;;;11.50;99.90;;;;;;5029152;28;21750;-79
2022/09/27 02:23:20;;;;;;;0.37;0.37;;;11.50;99.90;;;;;;5022062;28;20216;-79
2022/09/27 02:25:54;;;;;;;0.10;0.10;;;11.40;99.90;;;;;;5027359;28;20276;-79
2022/09/27 02:28:32;;;;;;;0.10;0.10;;;11.40;99.90;;;;;;5025940;28;20185;-79
2022/09/27 02:30:57;;;;;;;0.10;0.10;;;11.40;99.90;;;;;;5030647;28;20228;-79
2022/09/27 02:33:56;;;;;;;0.10;0.10;;;11.40;99.90;;;;;;5023726;28;20221;-79
2022/09/27 02:36:21;;;;;;;0.20;0.20;;;11.40;99.90;;;;;;5016796;28;20222;-79
2022/09/27 02:38:48;;;;;;;0.10;0.10;;;11.40;99.90;;;;;;5029173;28;20714;-79
2022/09/27 02:41:18;;;;;;;0.20;0.20;;;11.40;99.90;;;;;;5027413;28;20217;-79
2022/09/27 02:43:47;;;;;;;0.30;0.30;;;11.30;99.90;;;;;;5041014;28;20181;-79
2022/09/27 02:46:19;;;;;;;0.10;0.10;;;11.30;99.90;;;;;;5024866;28;20212;-79
2022/09/27 02:49:24;;;;;;;0.10;0.10;;;11.30;99.90;;;;;;5023236;28;20220;-79
2022/09/27 02:52:11;;;;;;;0.10;0.10;;;11.20;99.90;;;;;;5022714;28;20582;-79
2022/09/27 02:55:11;;;;;;;0.10;0.10;;;11.20;99.90;;;;;;5021140;28;20214;-79
2022/09/27 02:57:47;;;;;;;0.93;0.93;;;11.20;99.90;;;;;;5021258;28;20191;-79
2022/09/27 03:00:19;;;;;;;0.30;0.30;;;11.10;99.90;;;;;;5029113;28;20219;-79
2022/09/27 03:02:49;;;;;;;0.10;0.10;;;11.10;99.90;;;;;;5031981;28;20189;-79
2022/09/27 03:05:27;;;;;;;0.10;0.10;;;11.10;99.90;;;;;;5033682;28;20194;-79
2022/09/27 03:07:53;;;;;;;0.10;0.10;;;11.10;99.90;;;;;;5032330;28;20572;-79
2022/09/27 03:10:23;;;;;;;0.10;0.10;;;11.00;99.90;;;;;;5033350;28;20194;-79
2022/09/27 03:12:49;;;;;;;0.10;0.10;;;11.00;99.90;;;;;;5033023;28;20182;-79
2022/09/27 03:15:15;;;;;;;0.10;0.10;;;10.90;99.90;;;;;;5032121;28;20212;-79
2022/09/27 03:17:40;;;;;;;0.10;0.10;;;10.90;99.90;;;;;;5034456;28;20194;-79
2022/09/27 03:20:07;;;;;;;0.10;0.10;;;10.90;99.90;;;;;;5033245;28;20582;-79
2022/09/27 03:22:33;;;;;;;0.10;0.10;;;10.80;99.90;;;;;;5031749;28;20181;-79
2022/09/27 03:24:58;;;;;;;0.10;0.10;;;10.80;99.90;;;;;;5033729;28;21001;-79
2022/09/27 03:27:24;;;;;;;0.10;0.10;;;10.70;99.90;;;;;;5037939;28;20200;-79
2022/09/27 03:29:49;;;;;;;0.10;0.10;;;10.70;99.90;;;;;;5034348;28;20653;-79
2022/09/27 03:32:15;;;;;;;0.10;0.10;;;10.70;99.90;;;;;;5035033;28;20657;-79
2022/09/27 03:34:40;;;;;;;0.10;0.10;;;10.70;99.90;;;;;;5035550;28;20185;-79
2022/09/27 03:37:07;;;;;;;0.03;0.03;;;10.70;99.90;;;;;;5034963;28;20616;-79
2022/09/27 03:39:32;;;;;;;0.10;0.10;;;10.70;99.90;;;;;;5034909;28;20567;-79
2022/09/27 03:41:58;;;;;;;0.10;0.10;;;10.70;99.90;;;;;;5033664;28;20183;-79
2022/09/27 03:44:24;;;;;;;0.10;0.10;;;10.70;99.90;;;;;;5033242;28;20686;-79
2022/09/27 03:46:49;;;;;;;0.00;0.00;;;10.70;99.90;;;;;;5032913;28;20199;-79
2022/09/27 03:49:14;;;;;;;0.10;0.10;;;10.60;99.90;;;;;;5034646;28;20272;-79
2022/09/27 03:51:41;;;;;;;0.10;0.10;;;10.70;99.90;;;;;;5035242;28;20213;-79
2022/09/27 03:54:07;;;;;;;0.10;0.10;;;10.60;99.90;;;;;;5032449;28;20234;-79
2022/09/27 03:56:32;;;;;;;0.20;0.20;;;10.60;99.90;;;;;;5030479;28;20602;-79
2022/09/27 03:58:58;;;;;;;0.10;0.10;;;10.50;99.90;;;;;;5034314;28;20182;-79
2022/09/27 04:01:24;;;;;;;0.10;0.10;;;10.60;99.90;;;;;;5033088;28;20204;-79
2022/09/27 04:03:50;;;;;;;0.10;0.10;;;10.60;99.90;;;;;;5032249;28;20665;-79
2022/09/27 04:06:17;;;;;;;0.10;0.10;;;10.60;99.90;;;;;;5033999;28;20238;-79
2022/09/27 04:08:43;;;;;;;0.10;0.10;;;10.60;99.90;;;;;;5032908;28;20185;-79
2022/09/27 04:11:09;;;;;;;0.40;0.30;;;10.60;99.90;;;;;;5033714;28;21224;-79
2022/09/27 04:13:35;;;;;;;0.10;0.10;;;10.50;99.90;;;;;;5033329;28;20184;-79
2022/09/27 04:16:01;;;;;;;0.20;0.20;;;10.50;99.90;;;;;;5037164;28;20263;-80
2022/09/27 04:18:27;;;;;;;0.10;0.10;;;10.40;99.90;;;;;;5033764;28;20731;-79
2022/09/27 04:20:53;;;;;;;0.10;0.10;;;10.40;99.90;;;;;;5033844;28;20303;-79
2022/09/27 04:23:19;;;;;;;0.03;0.03;;;10.40;99.90;;;;;;5033924;28;20620;-79
2022/09/27 04:25:45;;;;;;;0.10;0.10;;;10.40;99.90;;;;;;5033377;28;20208;-79
2022/09/27 04:28:11;;;;;;;0.40;0.40;;;10.40;99.90;;;;;;5033146;28;20183;-79
2022/09/27 04:30:37;;;;;;;0.10;0.10;;;10.30;99.90;;;;;;5034768;28;20185;-79
2022/09/27 04:33:03;;;;;;;0.07;0.07;;;10.40;99.90;;;;;;5033877;28;20530;-79
2022/09/27 04:38:13;;;;;;;0.10;0.10;;;10.40;99.90;;;;;;5032389;28;20983;-79
2022/09/27 04:40:39;;;;;;;0.10;0.10;;;10.40;99.90;;;;;;5034715;28;20300;-79
2022/09/27 04:43:04;;;;;;;0.10;0.10;;;10.40;99.90;;;;;;5033893;28;20208;-80
2022/09/27 04:45:30;;;;;;;0.10;0.10;;;10.40;99.90;;;;;;5035526;28;20213;-79
2022/09/27 04:47:56;;;;;;;0.10;0.10;;;10.40;99.90;;;;;;5036843;28;20645;-79
2022/09/27 04:50:21;;;;;;;0.10;0.10;;;10.30;99.90;;;;;;5035153;28;20201;-80
2022/09/27 04:52:51;;;;;;;0.10;0.10;;;10.30;99.90;;;;;;5032481;28;20710;-78
2022/09/27 04:55:17;;;;;;;0.10;0.10;;;10.40;99.90;;;;;;5032690;28;20189;-78
2022/09/27 04:57:43;;;;;;;0.10;0.10;;;10.40;99.90;;;;;;5031806;28;20198;-78
2022/09/27 05:00:09;;;;;;;0.10;0.10;;;10.40;99.90;;;;;;5030840;28;20201;-78
2022/09/27 05:02:34;;;;;;;0.10;0.10;;;10.50;99.90;;;;;;5033650;28;20189;-79
2022/09/27 05:05:00;;;;;;;0.10;0.10;;;10.50;99.90;;;;;;5028519;28;20188;-78
2022/09/27 05:07:26;;;;;;;0.10;0.10;;;10.50;99.90;;;;;;5032002;28;20185;-79
2022/09/27 05:09:52;;;;;;;0.10;0.10;;;10.60;99.90;;;;;;5032817;28;21088;-78
2022/09/27 05:12:18;;;;;;;0.10;0.10;;;10.60;99.90;;;;;;5031525;28;20196;-79
2022/09/27 05:14:44;;;;;;;0.10;0.10;;;10.70;99.90;;;;;;5032659;28;20269;-81
2022/09/27 05:17:09;;;;;;;0.10;0.10;;;10.70;99.90;;;;;;5035910;28;20207;-81
2022/09/27 05:19:37;;;;;;;0.20;0.20;;;10.70;99.90;;;;;;5033464;28;20291;-80
2022/09/27 05:22:03;;;;;;;0.10;0.10;;;10.70;99.90;;;;;;5034003;28;20196;-81
2022/09/27 05:24:29;;;;;;;0.20;0.20;;;10.70;99.90;;;;;;5035588;28;20628;-81
2022/09/27 05:26:54;;;;;;;0.20;0.20;;;10.70;99.90;;;;;;5032740;28;20205;-79
2022/09/27 05:29:20;;;;;;;0.10;0.10;;;10.80;99.90;;;;;;5023351;28;20241;-79
2022/09/27 05:31:46;;;;;;;0.10;0.10;;;10.80;99.90;;;;;;5030165;28;20195;-79
2022/09/27 05:34:12;;;;;;;0.10;0.10;;;10.70;99.90;;;;;;5033790;28;20182;-79
2022/09/27 05:36:37;;;;;;;0.13;0.13;;;10.70;99.90;;;;;;5031360;28;20263;-79
2022/09/27 05:39:03;;;;;;;0.73;0.50;;;10.70;99.90;;;;;;5031217;28;20205;-80
2022/09/27 05:41:31;;;;;;;0.10;0.10;;;10.80;99.90;;;;;;5031272;28;20212;-80
2022/09/27 05:43:57;;;;;;;0.07;0.07;;;10.80;99.90;;;;;;5032042;28;20188;-79
2022/09/27 05:46:22;;;;;;;0.17;0.17;;;10.70;99.90;;;;;;5033006;28;20208;-79
2022/09/27 05:48:48;;;;;;;0.10;0.10;;;10.70;99.90;;;;;;5036270;28;20205;-79
2022/09/27 05:51:13;;;;;;;0.10;0.10;;;10.70;99.90;;;;;;5035137;28;20222;-80
2022/09/27 05:53:39;;;;;;;0.10;0.10;;;10.80;99.90;;;;;;5036274;28;20193;-80
2022/09/27 05:56:05;;;;;;;0.10;0.10;;;10.80;99.90;;;;;;5037082;28;20210;-80
2022/09/27 05:58:31;;;;;;;0.10;0.10;;;10.80;99.90;;;;;;5033534;28;20246;-79
2022/09/27 06:00:56;;;;;;;0.10;0.10;;;10.80;99.90;;;;;;5036365;28;20606;-79
2022/09/27 06:03:22;;;;;;;0.10;0.10;;;10.80;99.90;;;;;;5034548;28;20651;-79
2022/09/27 06:05:48;;;;;;;0.10;0.10;;;10.80;99.90;;;;;;5035333;28;20615;-79
2022/09/27 06:08:13;;;;;;;0.10;0.10;;;10.80;99.90;;;;;;5032538;28;20232;-79
2022/09/27 06:10:40;;;;;;;0.10;0.10;;;10.90;99.90;;;;;;5037757;28;20611;-79
2022/09/27 06:13:10;;;;;;;0.10;0.10;;;10.90;99.90;;;;;;5038302;28;20243;-79
2022/09/27 06:15:38;;;;;;;0.13;0.13;;;10.90;99.90;;;;;;5036881;28;20212;-79
2022/09/27 06:18:16;;;;;;;0.10;0.10;;;10.90;99.90;;;;;;5035457;28;20209;-79
2022/09/27 06:20:41;;;;;;;0.17;0.17;;;10.90;99.90;;;;;;5035319;28;20257;-79
2022/09/27 06:23:18;;;;;;;0.20;0.20;;;10.90;99.90;;;;;;5036672;28;20181;-79
2022/09/27 06:25:45;;;;;;;0.10;0.10;;;11.00;99.90;;;;;;5034190;28;20205;-79
2022/09/27 06:28:12;;;;;;;0.00;0.00;;;10.90;99.90;;;;;;5033669;28;20189;-79
2022/09/27 06:30:40;;;;;;;0.20;0.20;;;11.00;99.90;;;;;;5031537;28;20694;-79
2022/09/27 06:33:06;;;;;;;0.10;0.10;;;11.00;99.90;;;;;;5034814;28;20198;-79
2022/09/27 06:35:34;;;;;;;0.10;0.10;;;10.90;99.90;;;;;;5035220;28;20226;-80
2022/09/27 06:38:07;;;;;;;0.10;0.10;;;11.00;99.90;;;;;;5035742;28;20186;-79
2022/09/27 06:40:33;;;;;;;0.10;0.10;;;11.00;99.90;;;;;;5048615;28;20236;-79
2022/09/27 06:43:08;;;;;;;0.10;0.10;;;11.10;99.90;;;;;;5035858;28;20185;-79
2022/09/27 06:45:34;;;;;;;0.10;0.10;;;11.10;99.90;;;;;;5031811;28;20313;-79
2022/09/27 06:48:04;;;;;;;0.33;0.30;;;11.10;99.90;;;;;;5032144;28;20649;-79
2022/09/27 06:50:33;;;;;;;0.10;0.10;;;11.10;99.90;;;;;;5028325;28;20237;-79
2022/09/27 06:52:58;;;;;;;0.20;0.20;;;11.10;99.90;;;;;;5032276;28;20212;-79
2022/09/27 06:55:24;;;;;;;0.10;0.10;;;11.10;99.90;;;;;;5032038;28;20252;-79
2022/09/27 07:00:38;;;;;;;0.10;0.10;;;11.10;99.90;;;;;;5036560;28;20616;-80
2022/09/27 07:03:04;;;;;;;0.10;0.10;;;11.10;99.90;;;;;;5036195;28;20177;-80
2022/09/27 07:05:30;;;;;;;0.10;0.10;;;11.10;99.90;;;;;;5034118;28;20207;-79
2022/09/27 07:07:56;;;;;;;0.10;0.10;;;11.20;99.90;;;;;;5038240;28;20177;-79
2022/09/27 07:10:28;;;;;;;0.20;0.20;;;11.20;99.90;;;;;;5034150;28;20744;-79
2022/09/27 07:12:54;;;;;;;0.10;0.10;;;11.20;99.90;;;;;;5035864;28;20192;-79
2022/09/27 07:15:21;;;;;;;0.17;0.17;;;11.20;99.90;;;;;;5034104;28;20631;-80
2022/09/27 07:17:54;;;;;;;0.10;0.10;;;11.30;99.90;;;;;;5034492;28;20539;-79
2022/09/27 07:20:19;;;;;;;0.10;0.10;;;11.40;99.90;;;;;;5035168;28;20217;-79
2022/09/27 07:22:45;;;;;;;0.23;0.23;;;11.40;99.90;;;;;;5035565;28;20575;-79
2022/09/27 07:25:11;;;;;;;0.10;0.10;;;11.50;99.90;;;;;;5034040;28;20238;-80
2022/09/27 07:27:37;;;;;;;0.10;0.10;;;11.50;99.90;;;;;;5035314;28;20174;-80
2022/09/27 07:30:04;;;;;;;0.10;0.10;;;11.60;99.90;;;;;;5032872;28;20648;-80
2022/09/27 07:32:29;;;;;;;0.10;0.10;;;11.60;99.90;;;;;;5033148;28;20190;-80
2022/09/27 07:34:55;;;;;;;0.10;0.10;;;11.70;99.90;;;;;;5036427;28;20196;-80
2022/09/27 07:37:20;;;;;;;0.57;0.57;;;11.70;99.90;;;;;;5032373;28;20312;-79
2022/09/27 07:39:46;;;;;;;0.10;0.10;;;11.80;99.90;;;;;;5030598;28;20202;-80
2022/09/27 07:42:11;;;;;;;0.10;0.10;;;11.80;99.90;;;;;;5032558;28;20182;-85
2022/09/27 07:44:36;;;;;;;0.10;0.10;;;11.90;99.90;;;;;;5029677;28;20200;-79
2022/09/27 07:47:06;;;;;;;0.10;0.10;;;12.00;99.90;;;;;;5032346;28;20207;-79
2022/09/27 07:49:32;;;;;;;0.10;0.10;;;12.10;99.90;;;;;;5030434;28;20276;-80
2022/09/27 07:51:57;;;;;;;0.10;0.10;;;12.00;99.90;;;;;;5031945;28;20287;-79
2022/09/27 07:54:23;;;;;;;0.10;0.10;;;12.00;99.90;;;;;;5031100;28;20221;-79
2022/09/27 07:56:48;;;;;;;0.17;0.17;;;12.10;99.90;;;;;;5032761;28;20747;-79
2022/09/27 07:59:14;;;;;;;0.20;0.20;;;12.10;99.90;;;;;;5033363;28;20274;-80
2022/09/27 08:01:39;;;;;;;0.10;0.10;;;12.10;99.90;;;;;;5032519;28;20218;-80
2022/09/27 08:04:05;;;;;;;0.20;0.20;;;12.20;99.90;;;;;;5023060;28;20186;-80
2022/09/27 08:06:30;;;;;;;0.20;0.20;;;12.30;99.90;;;;;;5026033;28;20309;-81
2022/09/27 08:08:57;;;;;;;0.17;0.13;;;12.40;99.90;;;;;;5032956;28;20277;-80
2022/09/27 08:11:23;;;;;;;0.43;0.17;;;12.60;99.90;;;;;;5034383;28;20300;-81
2022/09/27 08:13:51;;;;;;;0.27;0.27;;;12.60;99.90;;;;;;5033300;28;20303;-81
2022/09/27 08:16:17;;;;;;;0.20;0.20;;;12.80;99.90;;;;;;5028012;28;20213;-79
2022/09/27 08:18:42;;;;;;;0.20;0.20;;;13.10;99.90;;;;;;5028583;28;20197;-79
2022/09/27 08:21:08;;;;;;;0.10;0.10;;;13.20;99.90;;;;;;5028405;28;20699;-79
2022/09/27 08:23:35;;;;;;;0.17;0.17;;;13.30;99.90;;;;;;5031567;28;20193;-79
2022/09/27 08:26:01;;;;;;;0.10;0.10;;;13.40;99.90;;;;;;5030490;28;20206;-79
2022/09/27 08:28:27;;;;;;;0.10;0.10;;;13.60;99.90;;;;;;5029936;28;20188;-79
2022/09/27 08:30:53;;;;;;;0.10;0.10;;;14.00;99.90;;;;;;5025700;28;20186;-80
2022/09/27 08:33:19;;;;;;;0.10;0.10;;;14.00;99.90;;;;;;5030320;28;20204;-80
2022/09/27 08:35:45;;;;;;;0.10;0.10;;;14.10;99.90;;;;;;5030352;28;20680;-79
2022/09/27 08:38:11;;;;;;;0.20;0.20;;;14.20;99.90;;;;;;5031086;28;20184;-81
2022/09/27 08:40:54;;;;;;;0.20;0.20;;;14.30;99.90;;;;;;5030272;28;20206;-80
2022/09/27 08:43:46;;;;;;;0.10;0.10;;;14.40;99.90;;;;;;5030553;28;20563;-83
2022/09/27 08:46:38;;;;;;;0.20;0.20;;;14.30;99.90;;;;;;5029907;28;20320;-79
2022/09/27 08:49:12;;;;;;;0.10;0.10;;;14.10;99.90;;;;;;5032067;28;20193;-79
2022/09/27 08:51:39;;;;;;;0.10;0.10;;;14.50;99.90;;;;;;5030386;28;20494;-79
2022/09/27 08:54:13;;;;;;;0.20;0.20;;;15.00;99.90;;;;;;5031550;28;20181;-79
2022/09/27 08:56:39;;;;;;;0.10;0.10;;;15.50;99.90;;;;;;5046657;28;20221;-80
2022/09/27 08:59:15;;;;;;;0.30;0.30;;;15.80;99.90;;;;;;5029335;28;20192;-79
2022/09/27 09:01:41;;;;;;;0.10;0.10;;;15.60;99.90;;;;;;5031274;28;20243;-79
2022/09/27 09:04:09;;;;;;;0.10;0.10;;;15.40;99.90;;;;;;5034928;28;20710;-79
2022/09/27 09:07:03;;;;;;;0.20;0.20;;;15.50;99.90;;;;;;5030790;28;20296;-79
2022/09/27 09:09:31;;;;;;;0.10;0.10;;;15.40;99.90;;;;;;5022794;28;20600;-80
2022/09/27 09:15:29;;;;;;;0.07;0.07;;;14.90;99.90;;;;;;5031167;28;20185;-80
2022/09/27 09:18:04;;;;;;;0.03;0.03;;;14.90;99.90;;;;;;5031096;28;20191;-81
2022/09/27 09:20:48;;;;;;;0.10;0.10;;;14.90;99.90;;;;;;5029225;28;20567;-80
2022/09/27 09:23:38;;;;;;;0.20;0.20;;;15.00;99.90;;;;;;5031469;28;20182;-80
2022/09/27 09:26:29;;;;;;;0.10;0.10;;;15.10;99.90;;;;;;5033092;28;20224;-81
2022/09/27 09:29:06;;;;;;;0.10;0.10;;;15.00;99.90;;;;;;5030985;28;20189;-81
2022/09/27 09:31:50;;;;;;;0.10;0.10;;;14.80;99.90;;;;;;5031068;28;20250;-81
2022/09/27 09:34:26;;;;;;;0.10;0.10;;;14.80;99.90;;;;;;5032042;28;20277;-81
2022/09/27 09:37:03;;;;;;;0.10;0.10;;;14.90;99.90;;;;;;5030627;28;20285;-81
2022/09/27 09:39:43;;;;;;;0.10;0.10;;;15.10;99.90;;;;;;5029534;28;20908;-80
2022/09/27 09:42:14;;;;;;;0.20;0.20;;;15.60;99.90;;;;;;5028898;28;20563;-82
2022/09/27 09:45:14;;;;;;;0.10;0.10;;;16.00;99.90;;;;;;5028264;28;20216;-81
2022/09/27 09:48:01;;;;;;;0.10;0.10;;;16.00;99.90;;;;;;5022954;28;20603;-80
2022/09/27 09:50:48;;;;;;;0.10;0.10;;;16.30;99.90;;;;;;5027588;28;20207;-79
2022/09/27 09:53:38;;;;;;;0.10;0.10;;;16.30;99.90;;;;;;5030459;28;20702;-80
2022/09/27 09:56:20;;;;;;;0.10;0.10;;;16.00;99.90;;;;;;5028348;28;20206;-79
2022/09/27 09:58:52;;;;;;;0.30;0.30;;;16.00;99.90;;;;;;5028076;28;20223;-80
2022/09/27 10:01:21;;;;;;;0.10;0.10;;;15.90;99.90;;;;;;5029320;28;20773;-79
2022/09/27 10:03:47;;;;;;;0.10;0.10;;;15.70;99.90;;;;;;5029633;28;20185;-79
2022/09/27 10:06:14;;;;;;;0.20;0.20;;;15.40;99.90;;;;;;5028619;28;20744;-79
2022/09/27 10:08:40;;;;;;;0.33;0.30;;;15.00;99.90;;;;;;5025794;28;20214;-80
2022/09/27 10:11:11;;;;;;;0.37;0.20;;;14.70;99.90;;;;;;5029500;28;20194;-80
2022/09/27 10:13:36;;;;;;;0.20;0.20;;;14.20;99.90;;;;;;5028984;28;20221;-79
2022/09/27 10:16:11;;;;;;;0.10;0.10;;;14.20;99.90;;;;;;5028964;28;20210;-79
2022/09/27 10:18:40;;;;;;;0.20;0.20;;;14.20;99.90;;;;;;5029584;28;20186;-79
2022/09/27 10:21:19;;;;;;;0.20;0.20;;;14.50;99.90;;;;;;5031767;28;20206;-79
2022/09/27 10:24:12;;;;;;;0.10;0.10;;;14.60;99.90;;;;;;5027538;28;20220;-79
2022/09/27 10:26:41;;;;;;;0.10;0.10;;;14.70;99.90;;;;;;5024827;28;20206;-79
2022/09/27 10:29:40;;;;;;;0.10;0.10;;;15.00;99.90;;;;;;5027817;28;20174;-80
2022/09/27 10:32:21;;;;;;;0.10;0.10;;;15.00;99.90;;;;;;5011617;28;20195;-79
2022/09/27 10:34:47;;;;;;;0.33;0.17;;;15.10;99.90;;;;;;5029849;28;21219;-79
2022/09/27 10:37:21;;;;;;;0.20;0.20;;;15.10;99.90;;;;;;5031212;28;20240;-79
2022/09/27 10:39:48;;;;;;;0.13;0.13;;;15.00;99.90;;;;;;5034417;28;20604;-79
2022/09/27 10:42:36;;;;;;;1.23;0.70;;;15.00;99.90;;;;;;5033780;28;20197;-80
2022/09/27 10:45:32;;;;;;;0.20;0.20;;;15.10;99.90;;;;;;5036551;28;20673;-80
2022/09/27 10:48:01;;;;;;;0.10;0.10;;;15.20;99.90;;;;;;5020011;28;20649;-79
2022/09/27 10:50:31;;;;;;;0.13;0.13;;;15.50;99.90;;;;;;5034200;28;20200;-79
2022/09/27 10:53:13;;;;;;;0.10;0.10;;;15.50;99.90;;;;;;5034237;28;20250;-80
2022/09/27 10:55:41;;;;;;;0.10;0.10;;;15.70;99.90;;;;;;5031647;28;20204;-79
2022/09/27 10:58:18;;;;;;;0.10;0.10;;;15.80;99.90;;;;;;5033260;28;21257;-80
2022/09/27 11:00:54;;;;;;;0.30;0.30;;;15.70;99.90;;;;;;5034274;28;20210;-80
2022/09/27 11:03:19;;;;;;;0.10;0.10;;;15.90;99.90;;;;;;5032974;28;20182;-80
2022/09/27 11:05:45;;;;;;;0.13;0.13;;;15.70;99.90;;;;;;5032509;28;20625;-80
2022/09/27 11:08:30;;;;;;;0.10;0.10;;;15.50;99.90;;;;;;5033810;28;20187;-79
2022/09/27 11:11:03;;;;;;;0.20;0.20;;;15.50;99.90;;;;;;5034710;28;20188;-80
2022/09/27 11:13:33;;;;;;;0.20;0.20;;;15.60;99.90;;;;;;5035184;28;20187;-79
2022/09/27 11:16:29;;;;;;;0.20;0.20;;;15.50;99.90;;;;;;5027799;28;20225;-79
2022/09/27 11:19:16;;;;;;;0.20;0.20;;;15.20;99.90;;;;;;5033967;28;20198;-79
2022/09/27 11:21:54;;;;;;;0.13;0.13;;;15.00;99.90;;;;;;5031630;28;20206;-80
2022/09/27 11:24:27;;;;;;;0.20;0.20;;;15.00;99.90;;;;;;5029501;28;20200;-79
2022/09/27 11:27:19;;;;;;;0.10;0.10;;;15.10;99.90;;;;;;5034038;28;20295;-79
2022/09/27 11:30:16;;;;;;;0.10;0.10;;;15.00;99.90;;;;;;5030644;28;20181;-79
2022/09/27 11:32:53;;;;;;;0.23;0.23;;;15.10;99.90;;;;;;5034231;28;20184;-80
2022/09/27 11:35:45;;;;;;;0.20;0.20;;;15.00;99.90;;;;;;5034551;28;20193;-79
2022/09/27 11:38:23;;;;;;;0.10;0.10;;;14.90;99.90;;;;;;5029185;28;20673;-79
2022/09/27 11:41:17;;;;;;;0.20;0.20;;;15.00;99.90;;;;;;5028623;28;20200;-79
2022/09/27 11:44:05;;;;;;;0.10;0.10;;;15.00;99.90;;;;;;5032970;28;20176;-80
2022/09/27 11:46:38;;;;;;;0.20;0.20;;;14.80;99.90;;;;;;5031473;28;20213;-80
2022/09/27 11:49:13;;;;;;;0.10;0.10;;;14.90;99.90;;;;;;5033557;28;20853;-80
2022/09/27 11:52:03;;;;;;;0.20;0.20;;;15.00;99.90;;;;;;5032790;28;20202;-80
2022/09/27 11:54:50;;;;;;;0.20;0.20;;;14.90;99.90;;;;;;5031275;28;20187;-80
2022/09/27 11:57:32;;;;;;;0.20;0.20;;;14.90;99.90;;;;;;5031413;28;20288;-79
2022/09/27 12:00:21;;;;;;;4.17;0.30;;;15.10;99.90;;;;;;5031669;28;20312;-79
2022/09/27 12:03:05;;;;;;;0.10;0.10;;;15.20;99.90;;;;;;5030510;28;20211;-80
2022/09/27 12:05:49;;;;;;;0.30;0.30;;;15.30;99.90;;;;;;5034102;28;20622;-80
2022/09/27 12:08:34;;;;;;;0.17;0.17;;;15.30;99.90;;;;;;5031908;28;20273;-80
2022/09/27 12:11:22;;;;;;;0.17;0.17;;;15.20;99.90;;;;;;5033044;28;20197;-80
2022/09/27 12:13:50;;;;;;;0.17;0.17;;;15.20;99.90;;;;;;5031427;28;20213;-81
2022/09/27 12:16:18;;;;;;;1.13;0.20;;;15.20;99.90;;;;;;5032221;28;20216;-81
2022/09/27 12:18:46;;;;;;;0.20;0.20;;;15.10;99.90;;;;;;5031879;28;20232;-80
2022/09/27 12:21:12;;;;;;;0.10;0.10;;;15.00;99.90;;;;;;5051342;28;20206;-80
2022/09/27 12:23:48;;;;;;;0.17;0.17;;;15.00;99.90;;;;;;5030394;28;20183;-81
2022/09/27 12:26:19;;;;;;;0.10;0.10;;;15.00;99.90;;;;;;5031648;28;20212;-81
2022/09/27 12:29:04;;;;;;;0.10;0.10;;;14.90;99.90;;;;;;5029227;28;20194;-81
2022/09/27 12:31:40;;;;;;;0.20;0.20;;;14.80;99.90;;;;;;5028679;28;20186;-80
2022/09/27 12:34:44;;;;;;;0.43;0.43;;;14.80;99.90;;;;;;5032486;28;20192;-81
2022/09/27 12:37:33;;;;;;;0.10;0.10;;;14.90;99.90;;;;;;5031585;28;20276;-81
2022/09/27 12:40:20;;;;;;;0.20;0.20;;;15.00;99.90;;;;;;5032211;28;20280;-80
2022/09/27 12:43:08;;;;;;;0.10;0.10;;;15.00;99.90;;;;;;5031219;28;20187;-80
2022/09/27 12:45:43;;;;;;;0.20;0.20;;;14.90;99.90;;;;;;5030964;28;20205;-81
2022/09/27 12:48:30;;;;;;;0.40;0.40;;;15.00;99.90;;;;;;5031323;28;20217;-80
2022/09/27 12:51:12;;;;;;;0.10;0.10;;;15.10;99.90;;;;;;5032560;28;20203;-81
2022/09/27 12:54:13;;;;;;;0.10;0.10;;;14.90;99.90;;;;;;5032963;28;20192;-80
2022/09/27 12:56:55;;;;;;;0.10;0.10;;;14.80;99.90;;;;;;5032287;28;20211;-81
2022/09/27 12:59:40;;;;;;;0.10;0.10;;;14.70;99.90;;;;;;5029695;28;20197;-81
2022/09/27 13:02:34;;;;;;;0.63;0.27;;;14.50;99.90;;;;;;5031828;28;20195;-80
2022/09/27 13:05:34;;;;;;;0.10;0.10;;;14.40;99.90;;;;;;5032144;28;20193;-81
2022/09/27 13:08:14;;;;;;;0.10;0.10;;;14.40;99.90;;;;;;5033210;28;20190;-80
2022/09/27 13:10:52;;;;;;;0.20;0.20;;;14.50;99.90;;;;;;5030827;28;20186;-80
2022/09/27 13:13:21;;;;;;;0.20;0.10;;;14.60;99.90;;;;;;5032436;28;20206;-80
2022/09/27 13:15:48;;;;;;;0.10;0.10;;;14.50;99.90;;;;;;5031123;28;20198;-80
2022/09/27 13:18:43;;;;;;;0.30;0.30;;;14.40;99.90;;;;;;5029384;28;20206;-81
2022/09/27 13:21:09;;;;;;;0.50;0.23;;;14.50;99.90;;;;;;5023664;28;20306;-80
2022/09/27 13:23:34;;;;;;;0.10;0.10;;;14.50;99.90;;;;;;5030846;28;20641;-80
2022/09/27 13:26:02;;;;;;;0.13;0.10;;;14.60;99.90;;;;;;5031279;28;20950;-80